Terminal Aerodrome Forecast
Issued by NWS

Current Version | Previous Version | Graphics & Text | Print | Product List | Glossary On
Versions: 1 2 3 4 5 6 7 8 9 10 11 12 13 14 15 16 17 18 19 20 21 22 23
000
FTUS41 KRNK 152321
TAFLWB
TAF
KLWB 152321Z 1600/1624 00000KT 6SM -RADZ BR OVC020
     FM160200 00000KT 4SM -RA BR OVC012
     FM161500 08003KT 6SM BR OVC025
     FM161900 14003KT P6SM OVC035=

USA.gov is the U.S. government's official web portal to all federal, state and local government web resources and services.